Time;durP1;ratioP1;P1;durP2;ratioP2;P2;SDS_P1;SDS_P2;PMS_P1;PMS_P2;Temp;Humidity;BMP_temperature;BMP_pressure;BME280_temperature;BME280_humidity;BME280_pressure;Samples;Min_cycle;Max_cycle;Signal;HPM_P1;HPM_P2
2023/07/13 00:00:24;;;;;;;4.13;1.33;;;;;;;23.18;39.16;100513.69;4099773;29;20055;-67
2023/07/13 00:02:29;;;;;;;7.75;1.65;;;;;;;23.13;39.15;100512.13;4100815;28;20113;-67
2023/07/13 00:04:32;;;;;;;4.32;1.63;;;;;;;23.06;39.10;100514.13;4100252;28;20047;-67
2023/07/13 00:06:36;;;;;;;2.65;0.90;;;;;;;23.06;39.24;100519.41;4099936;28;20071;-68
2023/07/13 00:08:39;;;;;;;4.25;1.45;;;;;;;23.06;39.05;100513.25;4101071;28;20050;-67
2023/07/13 00:10:42;;;;;;;2.80;1.17;;;;;;;23.00;39.12;100515.22;4083618;29;20099;-67
2023/07/13 00:12:45;;;;;;;6.85;1.85;;;;;;;22.98;38.89;100516.19;4100661;28;20039;-67
2023/07/13 00:14:49;;;;;;;1.83;1.02;;;;;;;22.96;39.34;100524.19;4100522;28;20081;-68
2023/07/13 00:16:52;;;;;;;4.22;1.20;;;;;;;22.95;39.41;100529.53;4100006;28;20039;-68
2023/07/13 00:18:56;;;;;;;3.87;1.10;;;;;;;22.91;39.68;100535.88;4100669;28;20050;-68
2023/07/13 00:21:05;;;;;;;2.55;1.17;;;;;;;22.83;39.56;100538.81;4100809;28;20039;-67
2023/07/13 00:23:08;;;;;;;4.03;1.60;;;;;;;22.78;40.10;100538.09;4100438;28;20082;-67
2023/07/13 00:25:12;;;;;;;3.75;0.98;;;;;;;22.73;40.97;100532.09;4100076;28;20508;-68
2023/07/13 00:27:14;;;;;;;3.00;1.15;;;;;;;22.73;41.39;100526.81;4100515;28;20050;-68
2023/07/13 00:29:17;;;;;;;2.30;1.25;;;;;;;22.69;40.97;100533.13;4099172;28;20055;-67
2023/07/13 00:31:21;;;;;;;1.95;1.10;;;;;;;22.64;41.44;100526.19;4098695;29;20073;-68
2023/07/13 00:33:24;;;;;;;2.80;1.20;;;;;;;22.59;41.37;100524.63;4099181;28;20106;-67
2023/07/13 00:35:31;;;;;;;1.40;0.90;;;;;;;22.55;41.35;100523.88;4099821;28;20134;-66
2023/07/13 00:37:35;;;;;;;3.95;1.30;;;;;;;22.48;41.04;100532.94;4100412;28;20051;-67
2023/07/13 00:39:38;;;;;;;1.95;1.20;;;;;;;22.48;40.89;100527.66;4100029;28;20046;-67
2023/07/13 00:41:42;;;;;;;5.07;1.35;;;;;;;22.33;40.85;100528.16;4099123;28;20039;-67
2023/07/13 00:43:45;;;;;;;2.78;1.10;;;;;;;22.38;40.80;100518.28;4098528;29;20047;-67
2023/07/13 00:46:31;;;;;;;4.88;1.70;;;;;;;22.42;40.67;100525.22;4099010;29;20432;-67
2023/07/13 00:48:36;;;;;;;11.20;1.77;;;;;;;22.38;40.81;100531.53;4099233;29;20046;-67
2023/07/13 00:50:42;;;;;;;3.30;1.20;;;;;;;22.39;40.45;100530.63;4098942;29;20050;-67
2023/07/13 00:52:47;;;;;;;5.32;1.67;;;;;;;22.30;40.40;100535.28;4100132;28;20039;-67
2023/07/13 00:54:50;;;;;;;3.78;1.40;;;;;;;22.13;40.99;100537.59;4098445;29;20245;-67
2023/07/13 00:56:58;;;;;;;3.28;1.58;;;;;;;22.05;41.02;100529.03;4098858;29;20067;-67
2023/07/13 00:59:03;;;;;;;2.28;1.30;;;;;;;21.97;41.09;100530.16;4098877;29;20043;-67
2023/07/13 01:01:06;;;;;;;4.53;1.55;;;;;;;21.93;41.16;100533.84;4099843;28;20086;-67
2023/07/13 01:03:09;;;;;;;5.88;1.77;;;;;;;21.96;41.41;100536.38;4098811;28;20428;-68
2023/07/13 01:05:14;;;;;;;4.90;1.35;;;;;;;21.96;41.22;100531.09;4099374;28;20047;-67
2023/07/13 01:07:19;;;;;;;4.55;1.40;;;;;;;21.89;41.24;100532.19;4098757;29;20047;-67
2023/07/13 01:09:22;;;;;;;3.45;1.55;;;;;;;21.91;41.43;100538.28;4099922;28;20556;-67
2023/07/13 01:11:25;;;;;;;3.92;1.50;;;;;;;21.95;41.24;100534.63;4098771;29;20513;-67
2023/07/13 01:13:28;;;;;;;2.97;1.00;;;;;;;21.92;41.67;100533.88;4098650;28;20043;-67
2023/07/13 01:15:39;;;;;;;3.45;1.40;;;;;;;21.93;41.45;100528.53;4098063;28;20053;-67
2023/07/13 01:17:43;;;;;;;2.13;1.33;;;;;;;21.95;41.66;100526.69;4099894;28;20065;-66
2023/07/13 01:19:46;;;;;;;4.03;1.42;;;;;;;22.03;41.24;100520.28;4098621;29;20114;-67
2023/07/13 01:21:53;;;;;;;2.25;1.20;;;;;;;22.05;41.43;100521.09;4098513;28;20079;-67
2023/07/13 01:23:55;;;;;;;4.25;1.50;;;;;;;22.01;41.74;100522.13;4097982;29;20085;-67
2023/07/13 01:25:59;;;;;;;3.25;1.30;;;;;;;22.04;41.59;100522.03;4098695;28;20047;-68
2023/07/13 01:28:02;;;;;;;4.45;1.30;;;;;;;21.98;42.92;100523.09;4098267;28;20059;-67
2023/07/13 01:30:06;;;;;;;3.60;1.40;;;;;;;21.96;43.71;100531.09;4099554;28;20071;-67
2023/07/13 01:32:12;;;;;;;6.53;1.70;;;;;;;21.95;43.59;100529.34;4099647;28;20106;-67
2023/07/13 01:34:14;;;;;;;;;;;;;;;21.84;43.77;100539.41;4098349;29;20050;-67
2023/07/13 01:36:17;;;;;;;3.42;1.55;;;;;;;21.77;43.72;100551.09;4098493;29;20009;-67
2023/07/13 01:38:22;;;;;;;3.50;1.10;;;;;;;21.68;43.89;100548.75;4099625;28;20050;-67
2023/07/13 01:40:25;;;;;;;6.38;1.58;;;;;;;21.61;44.51;100546.28;4082760;29;20040;-67
2023/07/13 01:42:29;;;;;;;1.67;1.23;;;;;;;21.56;44.65;100550.84;4098320;28;20050;-67
2023/07/13 01:44:32;;;;;;;2.37;1.30;;;;;;;21.53;44.83;100552.72;4098977;28;20405;-67
2023/07/13 01:46:35;;;;;;;3.88;1.27;;;;;;;21.46;44.64;100552.00;4098420;28;20660;-67
2023/07/13 01:48:38;;;;;;;4.43;1.20;;;;;;;21.41;44.62;100551.28;4098345;29;20119;-67
2023/07/13 01:50:40;;;;;;;2.17;1.30;;;;;;;21.37;44.79;100553.13;4098432;29;20081;-67
2023/07/13 01:52:42;;;;;;;3.60;1.33;;;;;;;21.30;45.04;100554.22;4098442;28;20050;-67
2023/07/13 01:54:47;;;;;;;3.35;0.90;;;;;;;21.25;45.05;100554.34;4098925;28;20049;-67
2023/07/13 01:56:52;;;;;;;4.63;1.60;;;;;;;21.16;45.33;100564.31;4098298;29;20123;-67
2023/07/13 01:58:55;;;;;;;3.95;1.70;;;;;;;21.13;45.72;100565.28;4098217;29;20071;-67
2023/07/13 02:01:00;;;;;;;4.10;1.48;;;;;;;21.08;45.60;100565.41;4098154;29;20564;-67
2023/07/13 02:03:04;;;;;;;2.67;1.20;;;;;;;21.07;45.42;100565.44;4098212;28;20067;-67
2023/07/13 02:05:08;;;;;;;3.92;1.30;;;;;;;21.07;45.33;100568.97;4098832;28;20040;-67
2023/07/13 02:07:11;;;;;;;5.55;1.85;;;;;;;21.07;45.40;100574.25;4098245;29;20043;-67
2023/07/13 02:09:14;;;;;;;3.13;1.58;;;;;;;21.09;45.62;100574.19;4098155;29;20187;-67
2023/07/13 02:11:19;;;;;;;4.72;1.40;;;;;;;21.07;45.42;100568.06;4099306;28;20445;-67
2023/07/13 02:13:21;;;;;;;2.65;1.33;;;;;;;21.01;45.43;100570.91;4098079;28;20545;-67
2023/07/13 02:15:24;;;;;;;3.60;1.60;;;;;;;20.97;45.52;100570.13;4081797;29;20118;-67
2023/07/13 02:17:28;;;;;;;2.75;1.50;;;;;;;20.99;45.49;100570.06;4114129;28;20067;-67
2023/07/13 02:19:30;;;;;;;2.50;1.30;;;;;;;20.97;45.74;100567.47;4098208;28;20141;-67
2023/07/13 02:21:32;;;;;;;2.38;1.40;;;;;;;20.99;45.66;100572.72;4082209;29;20500;-67
2023/07/13 02:23:35;;;;;;;4.90;1.52;;;;;;;21.01;46.35;100576.19;4098016;28;20046;-68
2023/07/13 02:25:38;;;;;;;5.20;1.42;;;;;;;21.00;46.66;100575.31;4097446;29;20529;-68
2023/07/13 02:27:43;;;;;;;5.40;1.63;;;;;;;21.02;46.17;100573.50;4097994;28;20035;-67
2023/07/13 02:29:46;;;;;;;4.20;1.48;;;;;;;21.02;45.98;100581.41;4098207;29;20039;-67
2023/07/13 02:31:49;;;;;;;4.10;1.48;;;;;;;21.00;46.20;100574.47;4098020;28;20047;-69
2023/07/13 02:33:52;;;;;;;6.13;1.95;;;;;;;20.97;46.68;100580.69;4098598;28;20118;-67
2023/07/13 02:35:55;;;;;;;2.58;1.50;;;;;;;20.95;46.45;100571.06;4099221;28;20074;-68
2023/07/13 02:37:58;;;;;;;3.53;1.38;;;;;;;20.96;46.54;100572.81;4099134;28;20130;-67
2023/07/13 02:40:03;;;;;;;9.20;1.65;;;;;;;20.96;46.24;100572.81;4099268;28;20074;-67
2023/07/13 02:42:07;;;;;;;4.22;1.80;;;;;;;20.95;46.41;100571.06;4100812;28;20063;-68
2023/07/13 02:44:13;;;;;;;3.47;1.80;;;;;;;20.93;46.51;100568.47;4100278;28;20047;-67
2023/07/13 02:46:16;;;;;;;3.35;1.50;;;;;;;20.95;46.09;100576.34;4085008;29;20051;-67
2023/07/13 02:48:19;;;;;;;3.78;1.60;;;;;;;20.95;45.78;100571.91;4100908;29;20043;-67
2023/07/13 02:50:22;;;;;;;1.92;1.50;;;;;;;20.96;45.87;100572.81;4100804;28;20043;-67
2023/07/13 02:52:25;;;;;;;3.92;1.52;;;;;;;20.95;46.05;100576.34;4100721;28;20509;-67
2023/07/13 02:54:28;;;;;;;4.95;1.50;;;;;;;20.92;46.57;100575.53;4084155;29;20502;-67
2023/07/13 02:56:33;;;;;;;4.40;1.50;;;;;;;20.89;46.86;100577.38;4116720;28;20504;-67
2023/07/13 02:58:38;;;;;;;3.85;1.50;;;;;;;20.81;47.45;100577.59;4100743;29;20043;-68
2023/07/13 03:00:43;;;;;;;3.70;1.60;;;;;;;20.77;47.40;100575.94;4100651;29;20451;-68
2023/07/13 03:02:46;;;;;;;2.30;1.45;;;;;;;20.74;47.09;100574.22;4084593;29;20091;-68
2023/07/13 03:04:50;;;;;;;3.90;1.52;;;;;;;20.73;46.98;100572.53;4084136;29;20442;-68
2023/07/13 03:06:57;;;;;;;5.63;1.48;;;;;;;20.70;47.03;100577.00;4100712;29;20496;-68
2023/07/13 03:09:04;;;;;;;2.53;1.48;;;;;;;20.69;47.42;100580.53;4100389;28;20039;-67
2023/07/13 03:11:11;;;;;;;5.63;1.58;;;;;;;20.67;47.72;100583.22;4100491;28;20517;-67
2023/07/13 03:13:16;;;;;;;4.15;1.48;;;;;;;20.67;47.66;100582.38;4101674;28;20114;-67
2023/07/13 03:15:20;;;;;;;3.53;1.50;;;;;;;20.62;47.75;100578.94;4099774;28;20075;-67
2023/07/13 03:17:26;;;;;;;2.58;1.50;;;;;;;20.55;47.60;100578.22;4100596;29;20425;-67
2023/07/13 03:19:29;;;;;;;4.00;1.92;;;;;;;20.51;47.52;100574.78;4100429;29;20473;-67
2023/07/13 03:21:32;;;;;;;3.85;1.25;;;;;;;20.54;46.72;100574.69;4084568;29;20043;-68
2023/07/13 03:23:35;;;;;;;4.22;1.58;;;;;;;20.60;45.80;100573.69;4100111;28;20390;-67
2023/07/13 03:25:38;;;;;;;4.82;1.55;;;;;;;20.59;45.91;100579.91;4099731;29;20066;-68
2023/07/13 03:27:41;;;;;;;5.22;2.15;;;;;;;20.60;45.55;100571.03;4101500;28;20071;-67
2023/07/13 03:29:45;;;;;;;7.20;1.77;;;;;;;20.54;45.90;100572.06;4084408;29;20039;-67
2023/07/13 03:31:49;;;;;;;;;;;;;;;20.49;46.38;100573.13;4100396;28;20497;-67
2023/07/13 03:33:53;;;;;;;3.63;1.63;;;;;;;20.46;46.30;100581.09;4100695;28;19926;-67
2023/07/13 03:35:56;;;;;;;5.45;1.75;;;;;;;20.41;46.25;100583.84;4084027;29;20050;-67
2023/07/13 03:38:00;;;;;;;3.55;1.60;;;;;;;20.45;46.34;100588.16;4100057;29;20134;-67
2023/07/13 03:40:08;;;;;;;6.43;1.98;;;;;;;20.48;46.88;100582.78;4100111;29;20043;-67
2023/07/13 03:42:11;;;;;;;4.22;1.65;;;;;;;20.48;46.76;100582.78;4099999;28;20039;-67
2023/07/13 03:44:14;;;;;;;3.80;1.42;;;;;;;20.50;47.11;100591.56;4099053;29;20090;-67
2023/07/13 03:46:18;;;;;;;5.35;1.60;;;;;;;20.49;48.71;100592.44;4099950;29;20075;-67
2023/07/13 03:48:21;;;;;;;4.38;1.63;;;;;;;20.47;48.75;100598.69;4100176;28;20070;-67
2023/07/13 03:50:27;;;;;;;3.08;1.50;;;;;;;20.46;48.80;100595.19;4099766;28;20043;-67
2023/07/13 03:52:31;;;;;;;6.88;1.67;;;;;;;20.48;48.74;100603.91;4098944;28;20043;-67
2023/07/13 03:54:34;;;;;;;4.18;1.63;;;;;;;20.48;48.71;100601.28;4100457;28;20497;-67
2023/07/13 03:56:37;;;;;;;4.63;1.90;;;;;;;20.45;48.78;100604.00;4099892;29;20105;-67
2023/07/13 03:58:45;;;;;;;9.18;1.70;;;;;;;20.40;49.14;100603.25;4099931;29;20448;-67
2023/07/13 04:00:52;;;;;;;3.95;1.52;;;;;;;20.37;48.40;100601.56;4099861;29;20043;-67
2023/07/13 04:02:55;;;;;;;2.95;1.45;;;;;;;20.35;48.34;100607.75;4099490;28;20083;-67
2023/07/13 04:04:58;;;;;;;4.95;1.85;;;;;;;20.36;48.22;100609.50;4099144;29;20069;-67
2023/07/13 04:07:03;;;;;;;7.30;1.60;;;;;;;20.37;48.00;100612.13;4099710;29;20122;-67
2023/07/13 04:09:06;;;;;;;3.92;1.38;;;;;;;20.43;47.10;100610.22;4099699;28;20054;-67
2023/07/13 04:11:08;;;;;;;3.47;1.42;;;;;;;20.38;47.16;100611.22;4083848;29;20044;-67
2023/07/13 04:13:11;;;;;;;3.75;1.40;;;;;;;20.43;46.60;100608.47;4099517;28;20059;-67
2023/07/13 04:15:14;;;;;;;3.65;1.90;;;;;;;20.44;46.82;100617.25;4100087;28;20062;-67
2023/07/13 04:17:17;;;;;;;4.28;1.55;;;;;;;20.44;47.04;100607.53;4099500;29;20082;-67
2023/07/13 04:19:20;;;;;;;5.30;2.53;;;;;;;20.46;46.92;100613.66;4100671;28;20071;-67
2023/07/13 04:21:23;;;;;;;4.82;1.73;;;;;;;20.49;46.64;100613.59;4099224;29;20047;-67
2023/07/13 04:23:27;;;;;;;3.88;1.85;;;;;;;20.50;47.66;100612.69;4100473;28;20054;-67
2023/07/13 04:25:30;;;;;;;3.28;1.90;;;;;;;20.50;48.24;100611.78;4098836;29;20129;-67
2023/07/13 04:27:33;;;;;;;2.83;1.30;;;;;;;20.46;49.03;100615.41;4100586;28;20466;-67
2023/07/13 04:29:36;;;;;;;5.35;2.00;;;;;;;20.42;49.71;100619.06;4099323;29;20113;-67
2023/07/13 04:31:38;;;;;;;3.55;1.70;;;;;;;20.40;49.80;100622.59;4100392;28;20043;-67
2023/07/13 04:33:41;;;;;;;8.10;1.63;;;;;;;20.37;49.89;100622.69;4100205;28;20102;-67
2023/07/13 04:35:46;;;;;;;4.57;1.60;;;;;;;20.39;49.77;100623.50;4100358;28;20043;-67
2023/07/13 04:37:50;;;;;;;4.00;1.95;;;;;;;20.39;49.99;100620.84;4100199;28;20050;-67
2023/07/13 04:39:54;;;;;;;1.75;1.35;;;;;;;20.38;49.97;100618.25;4099148;28;20047;-67
2023/07/13 04:41:57;;;;;;;3.00;1.70;;;;;;;20.35;50.18;100628.88;4100229;28;20130;-67
2023/07/13 04:44:00;;;;;;;6.25;1.77;;;;;;;20.35;49.84;100634.16;4099716;28;20078;-67
2023/07/13 04:46:08;;;;;;;3.80;1.70;;;;;;;20.34;49.51;100624.50;4099104;29;20043;-67
2023/07/13 04:48:11;;;;;;;5.15;1.92;;;;;;;20.29;49.45;100632.53;4100293;28;20138;-67
2023/07/13 04:50:19;;;;;;;3.90;1.60;;;;;;;20.28;49.74;100637.84;4100394;28;20070;-67
2023/07/13 04:52:22;;;;;;;3.50;1.40;;;;;;;20.22;49.98;100634.47;4100084;28;20050;-67
2023/07/13 04:54:25;;;;;;;6.60;2.05;;;;;;;20.27;49.92;100636.09;4098254;29;20053;-67
2023/07/13 04:56:30;;;;;;;3.28;1.55;;;;;;;20.29;50.89;100637.81;4098976;29;20063;-67
2023/07/13 04:58:33;;;;;;;2.63;1.90;;;;;;;20.27;51.41;100630.81;4100066;28;20046;-67
2023/07/13 05:00:36;;;;;;;2.58;1.70;;;;;;;20.25;51.25;100637.94;4100091;28;20043;-67
2023/07/13 05:02:39;;;;;;;7.60;1.70;;;;;;;20.23;50.93;100635.31;4099770;28;20138;-68
2023/07/13 05:04:42;;;;;;;4.82;1.80;;;;;;;20.29;50.69;100634.31;4099432;28;20098;-67
2023/07/13 05:06:50;;;;;;;5.50;1.40;;;;;;;20.28;50.58;100630.81;4098893;28;20110;-67
2023/07/13 05:08:53;;;;;;;5.97;1.63;;;;;;;20.32;50.05;100635.09;4098737;29;20043;-67
2023/07/13 05:10:55;;;;;;;3.63;1.48;;;;;;;20.33;49.79;100634.22;4099907;28;20039;-67
2023/07/13 05:13:00;;;;;;;6.88;1.60;;;;;;;20.34;49.63;100632.41;4098558;28;20039;-67
2023/07/13 05:15:02;;;;;;;5.03;1.60;;;;;;;20.34;48.84;100635.06;4099126;28;20131;-67
2023/07/13 05:17:06;;;;;;;6.30;1.75;;;;;;;20.38;48.86;100642.91;4098732;29;20078;-67
2023/07/13 05:19:09;;;;;;;5.57;1.85;;;;;;;20.37;49.06;100648.19;4098822;29;20043;-67
2023/07/13 05:21:12;;;;;;;3.55;1.58;;;;;;;20.36;48.58;100652.63;4099709;29;20043;-67
2023/07/13 05:23:16;;;;;;;3.22;1.60;;;;;;;20.40;48.39;100658.72;4098389;28;20039;-67
2023/07/13 05:25:19;;;;;;;6.43;1.80;;;;;;;20.41;48.52;100657.78;4082064;29;20053;-67
2023/07/13 05:27:23;;;;;;;7.15;1.55;;;;;;;20.44;48.47;100656.84;4099602;28;20458;-67
2023/07/13 05:29:27;;;;;;;4.05;1.48;;;;;;;20.43;48.54;100656.00;4099727;28;20095;-67
2023/07/13 05:31:29;;;;;;;;;;;;;;;20.38;48.55;100655.22;4083001;29;20082;-67
2023/07/13 05:33:32;;;;;;;4.00;1.40;;;;;;;20.46;47.99;100661.19;4099481;28;19923;-67
2023/07/13 05:35:35;;;;;;;2.88;1.40;;;;;;;20.54;47.73;100661.88;4099078;28;20043;-67
2023/07/13 05:37:38;;;;;;;2.53;1.60;;;;;;;20.58;47.65;100667.97;4099729;28;20074;-67
2023/07/13 05:39:41;;;;;;;6.05;1.40;;;;;;;20.64;47.51;100661.66;4098472;29;20504;-67
2023/07/13 05:41:44;;;;;;;6.65;1.73;;;;;;;20.70;47.19;100667.69;4099500;28;20416;-67
2023/07/13 05:43:47;;;;;;;5.03;1.40;;;;;;;20.77;47.19;100657.84;4098669;28;20047;-67
2023/07/13 05:45:54;;;;;;;4.43;1.52;;;;;;;20.75;46.94;100664.94;4099588;28;20082;-68
2023/07/13 05:47:56;;;;;;;7.82;1.67;;;;;;;20.76;46.35;100666.66;4099629;28;20126;-67
2023/07/13 05:49:59;;;;;;;3.72;1.42;;;;;;;20.82;46.66;100674.47;4099574;28;20051;-67
2023/07/13 05:52:04;;;;;;;;;;;;;;;20.81;46.67;100672.72;4099928;28;20494;-67
2023/07/13 05:54:07;;;;;;;7.13;1.90;;;;;;;20.91;46.26;100668.94;4098739;28;19923;-67
2023/07/13 05:56:10;;;;;;;6.68;1.80;;;;;;;20.96;45.98;100678.53;4099532;28;20066;-67
2023/07/13 05:58:12;;;;;;;3.67;1.60;;;;;;;20.93;46.03;100677.69;4098242;29;20039;-68
2023/07/13 06:00:16;;;;;;;9.02;2.40;;;;;;;20.98;45.81;100666.97;4098171;28;20564;-68
2023/07/13 06:02:20;;;;;;;7.18;2.15;;;;;;;20.98;46.07;100666.13;4099407;28;20050;-67
2023/07/13 06:04:23;;;;;;;10.55;2.53;;;;;;;21.01;45.46;100677.50;4098776;28;20043;-67
2023/07/13 06:06:26;;;;;;;5.60;2.08;;;;;;;20.93;45.39;100682.13;4082346;29;20108;-67
2023/07/13 06:08:28;;;;;;;4.25;1.98;;;;;;;20.89;45.16;100686.59;4098078;28;20504;-68
2023/07/13 06:10:33;;;;;;;3.63;1.48;;;;;;;20.85;46.13;100692.00;4099389;28;20139;-68
2023/07/13 06:12:36;;;;;;;8.18;2.17;;;;;;;20.90;45.93;100690.97;4099111;28;20090;-68
2023/07/13 06:14:39;;;;;;;3.88;1.95;;;;;;;20.98;45.75;100689.91;4099421;28;20035;-67
2023/07/13 06:16:42;;;;;;;4.45;1.65;;;;;;;21.12;45.70;100690.44;4102463;28;20117;-68
2023/07/13 06:18:47;;;;;;;4.82;1.75;;;;;;;21.32;45.43;100694.31;4102492;28;20126;-67
2023/07/13 06:20:48;;;;;;;5.07;1.90;;;;;;;21.47;44.85;100696.56;4102506;28;20473;-68
2023/07/13 06:22:51;;;;;;;4.63;1.90;;;;;;;21.66;44.54;100699.59;4102195;28;20050;-67
2023/07/13 06:24:54;;;;;;;7.68;2.50;;;;;;;21.80;43.79;100704.53;4101818;28;20520;-68
2023/07/13 06:26:57;;;;;;;5.20;1.83;;;;;;;21.97;42.83;100712.81;4102296;28;20066;-68
2023/07/13 06:29:00;;;;;;;4.43;2.10;;;;;;;21.80;43.39;100709.81;4102332;28;20062;-68
2023/07/13 06:31:05;;;;;;;3.85;1.55;;;;;;;21.82;43.12;100713.28;4101101;29;20046;-68
2023/07/13 06:33:08;;;;;;;8.35;2.30;;;;;;;21.97;42.76;100710.16;4102334;28;20050;-68
2023/07/13 06:35:13;;;;;;;5.80;2.03;;;;;;;22.02;42.90;100703.88;4101638;28;20043;-67
2023/07/13 06:37:16;;;;;;;4.95;1.80;;;;;;;22.12;42.50;100710.63;4102182;28;20035;-68
2023/07/13 06:39:19;;;;;;;3.30;1.63;;;;;;;22.19;41.44;100709.53;4100938;29;20082;-69
2023/07/13 06:41:24;;;;;;;4.30;1.50;;;;;;;22.27;41.60;100712.81;4102136;29;20138;-68
2023/07/13 06:43:28;;;;;;;4.10;1.50;;;;;;;22.30;41.58;100725.13;4102122;28;20035;-68
2023/07/13 06:45:30;;;;;;;5.88;1.70;;;;;;;22.37;41.01;100716.09;4101472;28;20082;-68
2023/07/13 06:47:33;;;;;;;3.75;1.40;;;;;;;22.37;41.84;100717.88;4100895;29;20039;-68
2023/07/13 06:49:36;;;;;;;5.07;1.90;;;;;;;22.53;40.42;100731.50;4102084;28;20047;-68
2023/07/13 06:51:40;;;;;;;5.43;1.40;;;;;;;22.57;40.86;100723.41;4100657;29;20090;-68
2023/07/13 06:53:43;;;;;;;5.72;1.92;;;;;;;22.71;39.87;100735.38;4101646;28;20046;-68
2023/07/13 06:55:47;;;;;;;4.03;1.30;;;;;;;22.84;39.47;100726.97;4102037;28;20542;-67
2023/07/13 06:57:50;;;;;;;;;;;;;;;22.82;39.23;100735.88;4085278;29;20139;-67
2023/07/13 06:59:53;;;;;;;5.32;1.58;;;;;;;22.91;37.94;100726.75;4101823;28;19923;-67
2023/07/13 07:01:56;;;;;;;2.95;1.20;;;;;;;22.94;38.50;100730.19;4100519;28;20053;-67
2023/07/13 07:03:59;;;;;;;5.95;1.88;;;;;;;23.00;38.28;100732.63;4101101;28;20486;-68
2023/07/13 07:06:12;;;;;;;5.93;1.63;;;;;;;23.05;39.03;100728.97;4101677;28;20457;-67
2023/07/13 07:08:17;;;;;;;3.47;1.33;;;;;;;23.17;38.01;100733.88;4100704;29;20051;-67
2023/07/13 07:10:20;;;;;;;4.82;1.33;;;;;;;23.24;37.54;100732.75;4101910;28;20067;-67
2023/07/13 07:12:23;;;;;;;4.18;1.08;;;;;;;23.24;37.88;100731.91;4101615;28;20142;-67
2023/07/13 07:14:26;;;;;;;6.50;1.65;;;;;;;23.29;37.44;100738.78;4100997;28;20051;-67
2023/07/13 07:16:29;;;;;;;9.48;1.98;;;;;;;23.37;36.63;100735.84;4101632;28;20039;-67
2023/07/13 07:18:31;;;;;;;3.60;1.30;;;;;;;23.37;37.35;100735.00;4101515;28;20091;-67
2023/07/13 07:20:34;;;;;;;6.72;1.50;;;;;;;23.39;38.14;100736.66;4101609;28;20058;-67
2023/07/13 07:22:37;;;;;;;2.80;1.08;;;;;;;23.45;38.28;100733.81;4101571;28;20065;-67
2023/07/13 07:24:41;;;;;;;3.92;1.40;;;;;;;23.51;38.75;100732.72;4100856;28;20553;-67
2023/07/13 07:26:44;;;;;;;5.07;1.63;;;;;;;23.56;38.59;100730.75;4101381;28;20050;-66
2023/07/13 07:28:50;;;;;;;8.30;1.63;;;;;;;23.69;38.27;100737.38;4100186;29;20050;-66
2023/07/13 07:31:13;;;;;;;5.15;1.40;;;;;;;23.72;38.69;100739.06;4101457;28;20043;-67
2023/07/13 07:33:19;;;;;;;3.88;1.52;;;;;;;23.81;38.57;100735.19;4100206;28;20047;-67
2023/07/13 07:35:22;;;;;;;5.90;1.88;;;;;;;24.03;36.89;100732.63;4100662;28;20559;-68
2023/07/13 07:37:25;;;;;;;9.25;1.95;;;;;;;24.02;37.19;100728.25;4101480;28;20047;-66
2023/07/13 07:39:49;;;;;;;4.22;1.60;;;;;;;23.74;37.55;100728.38;4101443;28;20047;-67
2023/07/13 07:42:15;;;;;;;2.28;1.33;;;;;;;23.61;38.53;100736.78;4101197;28;20044;-67
2023/07/13 07:44:18;;;;;;;9.55;1.92;;;;;;;23.59;39.16;100735.09;4100646;28;20039;-67
2023/07/13 07:46:21;;;;;;;5.97;1.73;;;;;;;23.86;38.21;100738.59;4101189;28;20493;-67
2023/07/13 07:48:24;;;;;;;4.57;1.27;;;;;;;23.81;38.71;100741.34;4101067;28;20130;-67
2023/07/13 07:50:28;;;;;;;3.70;1.20;;;;;;;23.87;39.05;100738.53;4099862;29;20089;-67
2023/07/13 07:52:31;;;;;;;4.78;1.10;;;;;;;24.00;38.68;100735.41;4100899;28;20047;-68
2023/07/13 07:54:33;;;;;;;5.80;1.55;;;;;;;24.14;37.39;100734.91;4100527;28;20039;-67
2023/07/13 07:56:41;;;;;;;3.97;1.55;;;;;;;24.03;38.22;100736.19;4101071;28;20405;-67
2023/07/13 07:58:46;;;;;;;4.30;1.55;;;;;;;24.11;38.26;100737.66;4099740;28;20051;-67
2023/07/13 08:00:52;;;;;;;4.55;1.27;;;;;;;24.18;38.58;100739.16;4101062;28;20049;-66
2023/07/13 08:02:58;;;;;;;7.65;1.90;;;;;;;24.33;38.87;100735.91;4100853;28;20047;-66
2023/07/13 08:05:18;;;;;;;4.53;1.40;;;;;;;24.45;38.72;100737.22;4099036;29;20134;-67
2023/07/13 08:07:40;;;;;;;2.40;1.15;;;;;;;24.56;38.28;100744.75;4100890;28;20413;-67
2023/07/13 08:09:43;;;;;;;8.85;1.75;;;;;;;24.58;38.00;100748.25;4099506;29;20039;-67
2023/07/13 08:11:47;;;;;;;5.47;1.50;;;;;;;24.66;37.52;100740.00;4099530;28;20040;-66
2023/07/13 08:13:53;;;;;;;5.45;1.45;;;;;;;24.70;37.48;100736.28;4100108;28;20122;-67
2023/07/13 08:15:57;;;;;;;4.60;1.55;;;;;;;24.77;37.42;100739.56;4100881;28;20039;-67
2023/07/13 08:18:00;;;;;;;7.38;1.48;;;;;;;24.73;36.88;100739.66;4100653;28;20050;-67
2023/07/13 08:20:04;;;;;;;5.53;1.58;;;;;;;24.83;36.35;100734.84;4083459;29;20078;-66
2023/07/13 08:22:15;;;;;;;7.57;1.95;;;;;;;24.88;35.87;100735.53;4099684;28;20461;-71
2023/07/13 08:24:18;;;;;;;7.35;1.42;;;;;;;24.63;36.65;100737.47;4096988;28;20051;-64
2023/07/13 08:26:21;;;;;;;8.40;1.33;;;;;;;24.56;36.91;100747.41;4100637;28;20134;-64
2023/07/13 08:28:26;;;;;;;2.92;1.27;;;;;;;24.53;37.97;100735.16;4099393;29;20053;-65
2023/07/13 08:30:28;;;;;;;4.75;2.25;;;;;;;24.65;37.63;100733.81;4115404;28;20046;-65
2023/07/13 08:32:31;;;;;;;7.07;1.50;;;;;;;24.80;36.96;100736.78;4100539;28;20148;-64
2023/07/13 08:34:34;;;;;;;10.70;2.20;;;;;;;24.87;36.84;100728.50;4114574;28;20468;-65
2023/07/13 08:36:37;;;;;;;5.45;1.30;;;;;;;24.91;36.75;100734.53;4100200;28;20086;-65
2023/07/13 08:38:40;;;;;;;2.70;1.20;;;;;;;25.01;36.61;100735.03;4099869;28;20039;-65
2023/07/13 08:40:44;;;;;;;3.97;1.70;;;;;;;25.18;36.58;100736.97;4100417;28;20050;-65
2023/07/13 08:42:55;;;;;;;4.85;1.77;;;;;;;25.31;36.63;100722.25;4100234;28;20046;-65
2023/07/13 08:45:10;;;;;;;9.65;1.65;;;;;;;25.33;36.41;100720.38;4099863;28;20042;-65
2023/07/13 08:47:18;;;;;;;5.38;1.70;;;;;;;25.29;36.00;100717.88;4099109;29;20067;-65
2023/07/13 08:49:24;;;;;;;3.95;1.15;;;;;;;25.23;36.15;100721.66;4100390;28;20562;-66
2023/07/13 08:51:42;;;;;;;4.53;1.30;;;;;;;25.15;36.55;100726.47;4100237;28;20051;-65
2023/07/13 08:53:48;;;;;;;1.95;1.20;;;;;;;24.96;36.78;100729.91;4099580;28;20568;-65
2023/07/13 08:55:58;;;;;;;4.03;1.15;;;;;;;25.00;36.67;100726.19;4083264;29;20043;-65
2023/07/13 08:58:04;;;;;;;3.15;1.10;;;;;;;25.01;36.14;100727.91;4100186;28;20073;-64
2023/07/13 09:00:12;;;;;;;4.78;1.20;;;;;;;24.84;36.45;100722.44;4098814;28;20046;-65
2023/07/13 09:02:25;;;;;;;3.92;1.40;;;;;;;24.78;36.93;100720.00;4100020;28;20043;-65
2023/07/13 09:04:33;;;;;;;3.42;1.17;;;;;;;24.99;37.15;100713.81;4099368;28;20059;-65
2023/07/13 09:06:57;;;;;;;3.10;1.27;;;;;;;25.30;36.48;100723.13;4100006;28;20097;-65
2023/07/13 09:09:03;;;;;;;5.25;1.30;;;;;;;25.44;36.13;100720.78;4099987;28;20073;-64
2023/07/13 09:11:21;;;;;;;3.78;1.40;;;;;;;25.61;35.43;100720.06;4099978;28;20135;-64
2023/07/13 09:13:36;;;;;;;5.85;1.80;;;;;;;25.56;35.20;100721.19;4082699;29;20071;-64
2023/07/13 09:15:43;;;;;;;3.15;1.30;;;;;;;25.69;34.99;100719.69;4082161;29;20126;-66
2023/07/13 09:17:50;;;;;;;5.47;1.25;;;;;;;25.54;35.30;100713.25;4100021;28;20515;-66
2023/07/13 09:20:00;;;;;;;5.60;1.48;;;;;;;25.26;35.95;100705.56;4099845;29;20067;-65
2023/07/13 09:22:15;;;;;;;7.90;1.48;;;;;;;25.33;35.76;100714.19;4099878;28;20122;-66
2023/07/13 09:24:35;;;;;;;3.67;1.42;;;;;;;25.56;35.44;100708.72;4099257;28;20047;-66
2023/07/13 09:26:38;;;;;;;5.82;1.38;;;;;;;25.48;35.76;100708.22;4099796;28;20047;-66
2023/07/13 09:28:44;;;;;;;4.90;1.27;;;;;;;25.48;35.07;100712.66;4099735;29;20433;-65
2023/07/13 09:30:53;;;;;;;6.00;1.02;;;;;;;25.48;34.76;100707.34;4099743;28;20039;-66
2023/07/13 09:32:58;;;;;;;5.45;1.40;;;;;;;25.53;35.30;100708.88;4114355;28;20536;-66
2023/07/13 09:35:01;;;;;;;2.30;1.08;;;;;;;25.47;35.45;100713.63;4098923;28;20134;-64
2023/07/13 09:37:05;;;;;;;3.72;1.15;;;;;;;25.34;35.62;100711.47;4099583;28;20047;-65
2023/07/13 09:39:15;;;;;;;6.22;1.33;;;;;;;25.23;35.71;100711.91;4098416;28;20480;-64
2023/07/13 09:41:24;;;;;;;3.72;1.10;;;;;;;25.16;36.18;100712.22;4099597;28;20044;-64